Time;durP1;ratioP1;P1;durP2;ratioP2;P2;SDS_P1;SDS_P2;PMS_P1;PMS_P2;Temp;Humidity;BMP_temperature;BMP_pressure;BME280_temperature;BME280_humidity;BME280_pressure;Samples;Min_cycle;Max_cycle;Signal;HPM_P1;HPM_P2
2021/01/07 00:02:13;;;;;;;21.88;12.40;;;2.80;91.20;;;;;;5055822;28;20082;-85
2021/01/07 00:04:39;;;;;;;19.65;11.98;;;2.80;91.20;;;;;;5047881;28;20032;-89
2021/01/07 00:07:05;;;;;;;23.90;12.02;;;2.80;91.20;;;;;;5077901;28;20028;-89
2021/01/07 00:09:31;;;;;;;20.35;12.20;;;2.90;91.20;;;;;;5077933;28;20023;-89
2021/01/07 00:11:56;;;;;;;24.83;11.98;;;2.80;91.20;;;;;;5061288;28;20696;-89
2021/01/07 00:14:22;;;;;;;21.70;11.70;;;2.80;91.20;;;;;;5077883;28;20193;-89
2021/01/07 00:16:48;;;;;;;17.00;10.98;;;2.80;91.20;;;;;;5077506;28;20030;-89
2021/01/07 00:19:14;;;;;;;23.23;11.68;;;2.80;91.20;;;;;;5060765;28;20046;-89
2021/01/07 00:21:40;;;;;;;19.50;11.57;;;2.80;91.20;;;;;;5077609;28;20044;-89
2021/01/07 00:24:06;;;;;;;18.10;11.15;;;2.80;91.20;;;;;;5060548;28;20036;-89
2021/01/07 00:26:32;;;;;;;19.10;12.07;;;2.80;91.20;;;;;;5082858;28;20028;-89
2021/01/07 00:28:57;;;;;;;20.23;12.20;;;2.80;91.50;;;;;;5079399;28;20039;-89
2021/01/07 00:31:23;;;;;;;19.23;12.18;;;2.80;91.20;;;;;;5060808;28;20032;-90
2021/01/07 00:33:49;;;;;;;21.88;12.02;;;2.80;91.20;;;;;;5055724;28;20482;-85
2021/01/07 00:36:18;;;;;;;23.80;13.15;;;2.80;91.30;;;;;;5056593;28;20062;-85
2021/01/07 00:38:44;;;;;;;20.98;12.27;;;2.80;91.60;;;;;;5067665;28;20020;-82
2021/01/07 00:41:11;;;;;;;23.98;12.88;;;2.70;91.20;;;;;;5093795;28;20032;-81
2021/01/07 00:43:36;;;;;;;26.90;13.95;;;2.70;91.20;;;;;;5075738;28;20032;-81
2021/01/07 00:46:02;;;;;;;28.85;14.15;;;2.70;91.30;;;;;;5076421;28;20043;-86
2021/01/07 00:48:27;;;;;;;21.77;12.52;;;2.70;91.50;;;;;;5059576;28;20032;-86
2021/01/07 00:50:53;;;;;;;21.45;13.85;;;2.70;91.30;;;;;;5056058;28;20044;-85
2021/01/07 00:53:19;;;;;;;23.60;13.35;;;2.70;91.30;;;;;;5073095;28;20029;-85
2021/01/07 00:55:44;;;;;;;26.67;15.77;;;2.70;91.30;;;;;;5059381;28;20119;-86
2021/01/07 00:58:10;;;;;;;22.42;13.98;;;2.70;91.30;;;;;;5059729;28;20028;-86
2021/01/07 01:00:36;;;;;;;20.95;13.57;;;2.70;91.30;;;;;;5059671;28;20059;-85
2021/01/07 01:03:02;;;;;;;22.02;13.60;;;2.60;91.40;;;;;;5076114;28;20044;-86
2021/01/07 01:05:28;;;;;;;22.35;14.00;;;2.60;91.40;;;;;;5059618;28;20021;-86
2021/01/07 01:07:53;;;;;;;27.10;15.40;;;2.60;91.40;;;;;;5076089;28;20028;-85
2021/01/07 01:10:19;;;;;;;22.10;14.25;;;2.60;91.40;;;;;;5059376;28;20042;-86
2021/01/07 01:12:45;;;;;;;22.05;13.48;;;2.60;91.40;;;;;;5075307;28;20054;-81
2021/01/07 01:15:12;;;;;;;21.20;13.00;;;2.60;91.50;;;;;;5075330;28;20028;-81
2021/01/07 01:17:39;;;;;;;26.33;15.07;;;2.50;91.40;;;;;;5060384;28;20039;-89
2021/01/07 01:20:10;;;;;;;25.40;14.35;;;2.60;91.50;;;;;;5076791;28;20491;-90
2021/01/07 01:22:36;;;;;;;26.00;14.40;;;2.50;91.50;;;;;;5076684;28;20051;-90
2021/01/07 01:25:09;;;;;;;26.42;13.52;;;2.50;91.40;;;;;;5060189;28;20024;-89
2021/01/07 01:27:41;;;;;;;23.05;13.48;;;2.50;91.50;;;;;;5060799;28;20055;-89
2021/01/07 01:30:09;;;;;;;24.58;14.73;;;2.40;91.40;;;;;;5077121;28;20583;-89
2021/01/07 01:32:35;;;;;;;23.95;14.55;;;2.40;91.50;;;;;;5060057;28;20078;-89
2021/01/07 01:35:02;;;;;;;20.75;14.10;;;2.40;91.50;;;;;;5060048;28;20024;-89
2021/01/07 01:37:28;;;;;;;23.10;13.93;;;2.30;91.50;;;;;;5057643;28;20048;-89
2021/01/07 01:39:53;;;;;;;22.30;13.45;;;2.30;91.50;;;;;;5076681;28;20043;-89
2021/01/07 01:42:26;;;;;;;26.52;14.30;;;2.30;91.60;;;;;;5076938;28;20393;-89
2021/01/07 01:44:52;;;;;;;24.30;14.20;;;2.30;91.60;;;;;;5059985;28;20036;-89
2021/01/07 01:47:19;;;;;;;25.20;13.63;;;2.30;91.60;;;;;;5094007;28;20461;-89
2021/01/07 01:49:47;;;;;;;24.23;14.50;;;2.30;91.60;;;;;;5076598;28;20122;-89
2021/01/07 01:52:13;;;;;;;21.92;13.18;;;2.30;91.60;;;;;;5076488;28;20480;-89
2021/01/07 01:54:39;;;;;;;21.73;12.57;;;2.30;91.60;;;;;;5094964;28;20080;-89
2021/01/07 01:57:07;;;;;;;25.77;13.93;;;2.30;91.60;;;;;;5076630;28;20365;-89
2021/01/07 01:59:34;;;;;;;24.73;14.70;;;2.30;91.90;;;;;;5076419;28;20058;-89
2021/01/07 02:02:06;;;;;;;22.00;13.65;;;2.30;91.60;;;;;;5059741;28;20032;-90
2021/01/07 02:04:32;;;;;;;30.60;15.57;;;2.30;91.60;;;;;;5076311;28;20074;-89
2021/01/07 02:06:59;;;;;;;25.85;14.63;;;2.30;91.60;;;;;;5076342;28;20036;-89
2021/01/07 02:09:25;;;;;;;24.02;14.65;;;2.20;91.60;;;;;;5059866;28;20031;-89
2021/01/07 02:11:51;;;;;;;25.40;14.32;;;2.20;91.60;;;;;;5077279;28;20084;-89
2021/01/07 02:14:16;;;;;;;22.88;13.82;;;2.20;91.60;;;;;;5059912;28;20078;-89
2021/01/07 02:16:42;;;;;;;27.08;14.55;;;2.20;91.60;;;;;;5059324;28;20020;-89
2021/01/07 02:19:07;;;;;;;23.13;13.18;;;2.20;91.60;;;;;;5059819;28;20031;-90
2021/01/07 02:21:37;;;;;;;32.25;14.73;;;2.20;91.60;;;;;;5056372;28;20043;-89
2021/01/07 02:24:03;;;;;;;22.48;13.50;;;2.20;91.70;;;;;;5076011;28;20036;-89
2021/01/07 02:26:29;;;;;;;21.85;12.50;;;2.20;91.70;;;;;;5079684;28;20038;-89
2021/01/07 02:28:54;;;;;;;25.13;14.30;;;2.20;91.70;;;;;;5063285;28;20074;-89
2021/01/07 02:31:20;;;;;;;24.33;12.75;;;2.20;91.60;;;;;;5097682;28;20032;-89
2021/01/07 02:33:46;;;;;;;24.40;13.15;;;2.30;91.70;;;;;;5062882;28;20024;-89
2021/01/07 02:36:12;;;;;;;20.90;12.15;;;2.30;91.70;;;;;;5097243;28;20020;-90
2021/01/07 02:38:38;;;;;;;18.95;12.30;;;2.30;91.70;;;;;;5079442;28;20035;-89
2021/01/07 02:41:05;;;;;;;23.35;13.63;;;2.30;91.70;;;;;;5078650;28;20124;-81
2021/01/07 02:43:31;;;;;;;26.05;13.70;;;2.40;91.70;;;;;;5096129;28;20024;-81
2021/01/07 02:45:56;;;;;;;24.13;14.15;;;2.30;91.70;;;;;;5061023;28;20020;-81
2021/01/07 02:48:22;;;;;;;24.45;13.98;;;2.40;91.70;;;;;;5095722;28;20032;-81
2021/01/07 02:50:48;;;;;;;28.60;13.85;;;2.40;91.60;;;;;;5077573;28;20055;-81
2021/01/07 02:53:14;;;;;;;25.05;14.35;;;2.40;91.70;;;;;;5077550;28;20384;-80
2021/01/07 02:55:40;;;;;;;23.27;14.38;;;2.40;91.70;;;;;;5077280;28;20044;-81
2021/01/07 02:58:06;;;;;;;23.52;14.82;;;2.40;91.70;;;;;;5057093;28;20056;-81
2021/01/07 03:00:32;;;;;;;24.00;13.82;;;2.40;92.00;;;;;;5077268;28;20047;-81
2021/01/07 03:02:57;;;;;;;25.17;14.00;;;2.50;91.70;;;;;;5077043;28;20385;-81
2021/01/07 03:05:23;;;;;;;22.90;12.50;;;2.50;91.70;;;;;;5077427;28;20008;-80
2021/01/07 03:07:48;;;;;;;23.15;14.48;;;2.50;91.70;;;;;;5077503;28;20084;-81
2021/01/07 03:10:14;;;;;;;26.15;15.38;;;2.50;91.70;;;;;;5095489;28;20040;-81
2021/01/07 03:12:40;;;;;;;29.50;17.08;;;2.60;91.70;;;;;;5076954;28;20032;-80
2021/01/07 03:15:06;;;;;;;26.73;16.30;;;2.50;91.80;;;;;;5060931;28;20032;-89
2021/01/07 03:17:33;;;;;;;27.08;16.10;;;2.50;91.80;;;;;;5078240;28;20031;-90
2021/01/07 03:19:59;;;;;;;25.75;16.25;;;2.50;91.80;;;;;;5078506;28;20021;-89
2021/01/07 03:22:25;;;;;;;34.67;19.05;;;2.60;91.80;;;;;;5061482;28;20079;-88
2021/01/07 03:24:53;;;;;;;34.90;18.75;;;2.60;91.80;;;;;;5078815;28;20477;-89
2021/01/07 03:27:19;;;;;;;40.47;21.58;;;2.60;91.80;;;;;;5061754;28;20028;-90
2021/01/07 03:29:44;;;;;;;40.17;18.85;;;2.50;91.80;;;;;;5061520;28;20077;-89
2021/01/07 03:32:10;;;;;;;40.03;21.92;;;2.50;91.90;;;;;;5061418;28;20038;-89
2021/01/07 03:34:35;;;;;;;36.63;20.95;;;2.60;91.90;;;;;;5061750;28;20024;-90
2021/01/07 03:37:01;;;;;;;34.15;20.30;;;2.60;91.90;;;;;;5060265;28;20031;-89
2021/01/07 03:39:27;;;;;;;35.03;21.10;;;2.60;91.90;;;;;;5077528;28;20634;-81
2021/01/07 03:41:53;;;;;;;40.50;22.83;;;2.60;92.00;;;;;;5076483;28;20538;-81
2021/01/07 03:44:18;;;;;;;40.20;21.77;;;2.60;92.00;;;;;;5060109;28;20031;-80
2021/01/07 03:46:44;;;;;;;33.63;20.17;;;2.60;92.00;;;;;;5076116;28;20028;-81
2021/01/07 03:49:10;;;;;;;38.70;21.27;;;2.60;92.00;;;;;;5076152;28;20032;-81
2021/01/07 03:51:35;;;;;;;44.80;21.40;;;2.60;92.00;;;;;;5076604;28;20029;-81
2021/01/07 03:54:02;;;;;;;36.33;20.23;;;2.60;92.10;;;;;;5056337;28;20065;-81
2021/01/07 03:56:27;;;;;;;35.65;20.70;;;2.60;92.00;;;;;;5073156;28;20024;-82
2021/01/07 03:58:53;;;;;;;36.10;20.20;;;2.60;92.00;;;;;;5056471;28;20017;-81
2021/01/07 04:01:19;;;;;;;40.25;21.35;;;2.70;92.10;;;;;;5057380;28;20047;-81
2021/01/07 04:03:44;;;;;;;39.22;18.70;;;2.70;92.10;;;;;;5058888;28;20131;-80
2021/01/07 04:06:10;;;;;;;38.78;20.40;;;2.70;92.40;;;;;;5059275;28;20046;-81
2021/01/07 04:08:36;;;;;;;39.92;20.70;;;2.70;92.20;;;;;;5075840;28;20034;-81
2021/01/07 04:11:02;;;;;;;38.47;20.83;;;2.70;92.20;;;;;;5075636;28;20476;-82
2021/01/07 04:13:28;;;;;;;35.83;20.42;;;2.60;92.20;;;;;;5074220;28;20498;-81
2021/01/07 04:15:53;;;;;;;35.90;18.98;;;2.60;92.20;;;;;;5076472;28;20032;-81
2021/01/07 04:18:19;;;;;;;41.95;21.95;;;2.60;92.30;;;;;;5055650;28;20032;-81
2021/01/07 04:20:45;;;;;;;40.35;21.92;;;2.60;92.30;;;;;;5092702;28;20020;-80
2021/01/07 04:23:11;;;;;;;47.45;22.55;;;2.60;92.30;;;;;;5076976;28;20109;-89
2021/01/07 04:25:36;;;;;;;44.58;22.58;;;2.60;92.40;;;;;;5060417;28;20024;-89
2021/01/07 04:28:02;;;;;;;57.70;25.95;;;2.60;92.40;;;;;;5060565;28;20032;-89
2021/01/07 04:30:28;;;;;;;53.80;24.42;;;2.60;92.40;;;;;;5095128;28;20020;-89
2021/01/07 04:32:54;;;;;;;46.03;23.77;;;2.60;92.50;;;;;;5056781;28;20044;-89
2021/01/07 04:35:20;;;;;;;46.33;22.40;;;2.60;92.50;;;;;;5074616;28;20052;-89
2021/01/07 04:37:45;;;;;;;43.90;22.23;;;2.60;92.60;;;;;;5060208;28;20024;-89
2021/01/07 04:40:11;;;;;;;45.25;21.85;;;2.60;92.60;;;;;;5060641;28;20145;-89
2021/01/07 04:42:37;;;;;;;42.83;22.55;;;2.50;92.60;;;;;;5060238;28;20032;-89
2021/01/07 04:45:03;;;;;;;42.78;22.23;;;2.50;92.90;;;;;;5077128;28;20024;-89
2021/01/07 04:47:29;;;;;;;42.88;21.98;;;2.50;92.80;;;;;;5056392;28;20040;-89
2021/01/07 04:49:56;;;;;;;47.20;23.25;;;2.50;92.80;;;;;;5072869;28;20024;-85
2021/01/07 04:52:22;;;;;;;37.50;20.52;;;2.50;92.80;;;;;;5081097;28;20094;-85
2021/01/07 04:54:52;;;;;;;42.88;21.45;;;2.50;92.80;;;;;;5059697;28;20032;-85
2021/01/07 04:57:17;;;;;;;39.90;20.65;;;2.60;93.10;;;;;;5075861;28;20020;-85
2021/01/07 04:59:43;;;;;;;36.53;18.88;;;2.50;92.80;;;;;;5075991;28;20561;-85
2021/01/07 05:02:09;;;;;;;43.50;20.98;;;2.50;92.80;;;;;;5056206;28;20037;-85
2021/01/07 05:04:48;;;;;;;40.80;21.23;;;2.50;92.80;;;;;;5039552;28;20037;-85
2021/01/07 05:07:16;;;;;;;35.38;18.48;;;2.40;92.80;;;;;;5080435;28;20046;-85
2021/01/07 05:09:41;;;;;;;45.33;19.83;;;2.40;92.90;;;;;;5075710;28;20032;-84
2021/01/07 05:12:08;;;;;;;29.15;17.40;;;2.40;92.90;;;;;;5041492;28;20670;-81
2021/01/07 05:14:41;;;;;;;33.67;19.30;;;2.40;92.90;;;;;;5075311;28;20027;-81
2021/01/07 05:17:09;;;;;;;33.42;18.27;;;2.40;92.80;;;;;;5093052;28;20032;-80
2021/01/07 05:19:36;;;;;;;33.10;18.45;;;2.30;93.00;;;;;;5075110;28;20480;-80
2021/01/07 05:22:02;;;;;;;34.10;17.95;;;2.30;93.20;;;;;;5074974;28;20050;-80
2021/01/07 05:24:28;;;;;;;43.00;19.85;;;2.40;92.90;;;;;;5075276;28;20028;-80
2021/01/07 05:26:53;;;;;;;39.80;21.25;;;2.40;92.90;;;;;;5075363;28;20543;-80
2021/01/07 05:29:20;;;;;;;39.28;19.98;;;2.40;92.90;;;;;;5058357;28;20036;-80
2021/01/07 05:31:56;;;;;;;36.75;20.73;;;2.40;92.90;;;;;;5074904;28;20453;-80
2021/01/07 05:34:22;;;;;;;41.10;20.95;;;2.40;92.90;;;;;;5059205;28;20119;-80
2021/01/07 05:36:47;;;;;;;44.20;20.77;;;2.50;93.00;;;;;;5074878;28;20115;-80
2021/01/07 05:39:13;;;;;;;32.95;19.27;;;2.40;93.00;;;;;;5058340;28;20111;-80
2021/01/07 05:41:38;;;;;;;37.97;20.88;;;2.40;93.00;;;;;;5075062;28;20063;-80
2021/01/07 05:44:13;;;;;;;30.48;17.42;;;2.40;93.00;;;;;;5058293;28;20028;-80
2021/01/07 05:46:38;;;;;;;30.30;18.20;;;2.40;93.00;;;;;;5074886;28;20454;-80
2021/01/07 05:49:04;;;;;;;28.88;18.08;;;2.40;93.00;;;;;;5058331;28;20024;-80
2021/01/07 05:51:31;;;;;;;22.75;15.38;;;2.40;93.00;;;;;;5093212;28;20483;-89
2021/01/07 05:53:59;;;;;;;24.60;15.77;;;2.40;93.20;;;;;;5076217;28;20020;-89
2021/01/07 05:56:25;;;;;;;27.58;15.95;;;2.40;93.00;;;;;;5075776;28;20098;-89
2021/01/07 05:58:53;;;;;;;28.88;18.05;;;2.40;92.90;;;;;;5076460;28;20028;-89
2021/01/07 06:01:20;;;;;;;26.80;16.58;;;2.40;92.90;;;;;;5079687;28;20035;-89
2021/01/07 06:03:48;;;;;;;28.92;17.10;;;2.40;92.80;;;;;;5079722;28;20043;-89
2021/01/07 06:06:16;;;;;;;25.38;16.67;;;2.40;92.70;;;;;;5079284;28;20404;-89
2021/01/07 06:08:50;;;;;;;24.80;16.50;;;2.40;92.80;;;;;;5079394;28;20020;-85
2021/01/07 06:11:17;;;;;;;25.13;16.60;;;2.40;92.80;;;;;;5079324;28;20040;-86
2021/01/07 06:13:45;;;;;;;25.63;15.48;;;2.40;92.70;;;;;;5079336;28;20380;-86
2021/01/07 06:16:16;;;;;;;25.23;17.08;;;2.40;92.90;;;;;;5079091;28;20031;-80
2021/01/07 06:18:42;;;;;;;23.83;15.75;;;2.40;92.60;;;;;;5062045;28;20036;-86
2021/01/07 06:21:08;;;;;;;40.40;21.23;;;2.40;92.60;;;;;;5078743;28;20039;-79
2021/01/07 06:23:47;;;;;;;28.20;16.73;;;2.30;92.60;;;;;;5061127;28;20044;-79
2021/01/07 06:26:25;;;;;;;27.17;17.92;;;2.30;92.60;;;;;;5095941;28;20039;-79
2021/01/07 06:28:56;;;;;;;43.15;22.30;;;2.30;92.70;;;;;;5077458;28;20056;-79
2021/01/07 06:31:36;;;;;;;53.72;24.23;;;2.20;92.70;;;;;;5078604;28;20028;-86
2021/01/07 06:34:03;;;;;;;31.00;19.52;;;2.20;92.80;;;;;;5078314;28;20028;-85
2021/01/07 06:36:41;;;;;;;33.30;20.45;;;2.20;92.90;;;;;;5062409;28;20020;-86
2021/01/07 06:39:08;;;;;;;33.87;21.03;;;2.20;93.00;;;;;;5078730;28;20070;-86
2021/01/07 06:41:34;;;;;;;38.35;21.77;;;2.20;93.00;;;;;;5062242;28;20036;-86
2021/01/07 06:44:02;;;;;;;29.33;19.67;;;2.20;93.00;;;;;;5078951;28;20032;-86
2021/01/07 06:46:42;;;;;;;42.38;23.60;;;2.20;93.00;;;;;;5077894;28;20027;-86
2021/01/07 06:49:28;;;;;;;46.55;24.52;;;2.20;93.10;;;;;;5078799;28;20392;-87
2021/01/07 06:52:03;;;;;;;31.85;20.05;;;2.20;93.10;;;;;;5096366;28;20380;-86
2021/01/07 06:54:34;;;;;;;29.58;18.15;;;2.20;93.00;;;;;;5078190;28;20070;-86
2021/01/07 06:57:05;;;;;;;39.72;20.90;;;2.20;93.10;;;;;;5096358;28;20051;-87
2021/01/07 06:59:32;;;;;;;42.85;22.67;;;2.30;93.10;;;;;;5078292;28;20017;-86
2021/01/07 07:01:59;;;;;;;34.50;19.02;;;2.20;93.10;;;;;;5078274;28;20024;-86
2021/01/07 07:04:29;;;;;;;39.53;19.98;;;2.20;93.20;;;;;;5078212;28;20388;-85
2021/01/07 07:07:33;;;;;;;45.13;21.30;;;2.30;93.30;;;;;;5078092;28;20024;-86
2021/01/07 07:10:17;;;;;;;35.30;18.95;;;2.30;93.20;;;;;;5095851;28;20455;-86
2021/01/07 07:12:47;;;;;;;40.15;20.38;;;2.20;93.30;;;;;;5077677;28;20032;-86
2021/01/07 07:15:12;;;;;;;36.92;19.38;;;2.20;93.30;;;;;;5078073;28;20051;-86
2021/01/07 07:17:45;;;;;;;38.15;20.02;;;2.20;93.20;;;;;;5077747;28;20012;-87
2021/01/07 07:20:11;;;;;;;39.67;20.95;;;2.20;93.30;;;;;;5077825;28;20021;-86
2021/01/07 07:22:44;;;;;;;42.22;21.75;;;2.20;93.30;;;;;;5077866;28;20056;-78
2021/01/07 07:25:24;;;;;;;45.67;21.98;;;2.20;93.30;;;;;;5077091;28;20066;-78
2021/01/07 07:28:04;;;;;;;40.25;20.73;;;2.20;93.40;;;;;;5085963;28;20032;-78
2021/01/07 07:30:33;;;;;;;47.10;22.85;;;2.20;93.40;;;;;;5095410;28;20030;-78
2021/01/07 07:33:00;;;;;;;54.17;25.38;;;2.20;93.40;;;;;;5094945;28;20067;-78
2021/01/07 07:35:34;;;;;;;48.90;24.27;;;2.20;93.50;;;;;;5085001;28;20065;-78
2021/01/07 07:38:00;;;;;;;45.75;21.92;;;2.20;93.60;;;;;;5094793;28;20035;-78
2021/01/07 07:40:37;;;;;;;52.47;23.85;;;2.10;93.50;;;;;;5076590;28;20028;-78
2021/01/07 07:43:04;;;;;;;61.65;26.05;;;2.20;93.60;;;;;;5056680;28;20460;-78
2021/01/07 07:45:32;;;;;;;56.78;25.15;;;2.20;93.60;;;;;;5076383;28;20030;-79
2021/01/07 07:47:58;;;;;;;48.55;23.42;;;2.20;93.60;;;;;;5076656;28;20119;-78
2021/01/07 07:50:29;;;;;;;51.50;24.33;;;2.20;93.60;;;;;;5059965;28;20032;-78
2021/01/07 07:53:04;;;;;;;44.10;22.48;;;2.20;93.60;;;;;;5076535;28;20459;-78
2021/01/07 07:55:40;;;;;;;34.53;19.52;;;2.20;93.70;;;;;;5094681;28;20081;-78
2021/01/07 07:58:18;;;;;;;45.42;20.42;;;2.20;93.70;;;;;;5076105;28;20432;-78
2021/01/07 08:00:54;;;;;;;40.53;20.08;;;2.20;93.60;;;;;;5094596;28;20048;-78
2021/01/07 08:03:30;;;;;;;34.75;18.40;;;2.20;93.60;;;;;;5076334;28;20452;-78
2021/01/07 08:06:00;;;;;;;41.17;19.88;;;2.20;93.70;;;;;;5094649;28;20023;-78
2021/01/07 08:08:33;;;;;;;56.92;24.58;;;2.20;93.70;;;;;;5094437;28;20027;-79
2021/01/07 08:11:00;;;;;;;36.83;19.85;;;2.20;93.80;;;;;;5076102;28;20042;-79
2021/01/07 08:13:27;;;;;;;53.17;22.90;;;2.30;93.80;;;;;;5059298;28;20427;-78
2021/01/07 08:15:59;;;;;;;34.60;18.65;;;2.30;93.80;;;;;;5056175;28;20036;-79
2021/01/07 08:18:27;;;;;;;35.10;18.92;;;2.40;93.70;;;;;;5072732;28;20438;-79
2021/01/07 08:21:07;;;;;;;41.97;21.17;;;2.40;93.70;;;;;;5055985;28;20028;-79
2021/01/07 08:23:33;;;;;;;46.85;21.73;;;2.50;93.70;;;;;;5091231;28;20415;-79
2021/01/07 08:26:01;;;;;;;47.70;21.38;;;2.50;93.90;;;;;;5075959;28;20035;-78
2021/01/07 08:28:44;;;;;;;38.42;20.65;;;2.50;93.70;;;;;;5094009;28;20024;-79
2021/01/07 08:31:23;;;;;;;36.80;20.48;;;2.50;93.60;;;;;;5093433;28;20039;-78
2021/01/07 08:33:51;;;;;;;41.17;21.98;;;2.50;93.60;;;;;;5093446;28;20035;-79
2021/01/07 08:36:20;;;;;;;49.08;23.90;;;2.50;93.60;;;;;;5059114;28;20028;-79
2021/01/07 08:38:54;;;;;;;38.30;21.08;;;2.50;93.70;;;;;;5076115;28;20012;-79
2021/01/07 08:41:22;;;;;;;58.72;25.48;;;2.50;93.70;;;;;;5058652;28;20031;-79
2021/01/07 08:43:51;;;;;;;50.50;25.08;;;2.60;93.70;;;;;;5075756;28;20023;-79
2021/01/07 08:46:19;;;;;;;51.08;24.63;;;2.60;93.70;;;;;;5093720;28;20046;-79
2021/01/07 08:48:56;;;;;;;57.40;25.15;;;2.60;93.70;;;;;;5075453;28;20028;-79
2021/01/07 08:51:22;;;;;;;47.35;24.60;;;2.60;93.70;;;;;;5056729;28;20123;-79
2021/01/07 08:53:56;;;;;;;44.60;23.63;;;2.60;93.70;;;;;;5091850;28;20487;-84
2021/01/07 08:56:49;;;;;;;60.97;26.52;;;2.60;93.70;;;;;;5076008;28;20035;-85
2021/01/07 08:59:21;;;;;;;45.63;23.23;;;2.70;93.70;;;;;;5091658;28;20034;-84
2021/01/07 09:01:49;;;;;;;56.28;28.45;;;2.70;93.70;;;;;;5076340;28;20027;-84
2021/01/07 09:04:35;;;;;;;65.93;26.65;;;2.70;93.70;;;;;;5094092;28;20036;-84
2021/01/07 09:07:09;;;;;;;48.45;24.48;;;2.70;93.70;;;;;;5093739;28;20476;-84
2021/01/07 09:09:48;;;;;;;54.85;26.75;;;2.80;93.70;;;;;;5059023;28;20070;-85
2021/01/07 09:12:16;;;;;;;57.85;26.42;;;2.80;93.60;;;;;;5093810;28;20028;-84
2021/01/07 09:14:50;;;;;;;47.03;24.35;;;2.80;93.60;;;;;;5076200;28;20028;-84
2021/01/07 09:17:17;;;;;;;43.25;24.00;;;2.80;93.60;;;;;;5076019;28;20016;-85
2021/01/07 09:19:44;;;;;;;44.13;23.70;;;2.80;93.60;;;;;;5076001;28;20024;-84
2021/01/07 09:22:16;;;;;;;43.75;23.35;;;2.90;93.60;;;;;;5093649;28;20488;-84
2021/01/07 09:24:41;;;;;;;45.20;24.20;;;2.90;93.60;;;;;;5059249;28;20036;-79
2021/01/07 09:27:12;;;;;;;56.97;28.58;;;3.00;93.60;;;;;;5058669;28;20055;-79
2021/01/07 09:29:38;;;;;;;62.00;28.15;;;3.00;93.60;;;;;;5058934;28;20029;-79
2021/01/07 09:32:05;;;;;;;54.50;27.17;;;3.00;93.60;;;;;;5074937;28;20112;-79
2021/01/07 09:34:31;;;;;;;45.95;24.92;;;3.00;93.60;;;;;;5061189;28;20028;-80
2021/01/07 09:37:09;;;;;;;60.38;28.52;;;3.10;93.90;;;;;;5063113;28;20024;-86
2021/01/07 09:39:35;;;;;;;72.85;31.15;;;3.20;93.60;;;;;;5080272;28;20381;-86
2021/01/07 09:42:01;;;;;;;48.28;25.30;;;3.10;93.60;;;;;;5080018;28;20115;-86
2021/01/07 09:44:27;;;;;;;51.97;26.42;;;3.10;93.60;;;;;;5081677;28;20024;-80
2021/01/07 09:46:54;;;;;;;45.10;24.42;;;3.20;93.60;;;;;;5095820;28;20024;-79
2021/01/07 09:49:20;;;;;;;49.20;26.40;;;3.20;93.60;;;;;;5078977;28;20381;-79
2021/01/07 09:51:46;;;;;;;39.95;22.95;;;3.20;93.60;;;;;;5078726;28;20032;-79
2021/01/07 09:54:12;;;;;;;43.58;24.45;;;3.20;93.50;;;;;;5078790;28;20430;-79
2021/01/07 09:56:37;;;;;;;49.53;25.42;;;3.30;93.50;;;;;;5062185;28;20024;-78
2021/01/07 09:59:03;;;;;;;58.42;26.67;;;3.30;93.50;;;;;;5078747;28;20073;-79
2021/01/07 10:01:29;;;;;;;53.10;25.50;;;3.30;93.60;;;;;;5062254;28;20078;-79
2021/01/07 10:03:54;;;;;;;45.72;24.50;;;3.30;93.70;;;;;;5061562;28;20034;-79
2021/01/07 10:06:20;;;;;;;51.35;25.63;;;3.30;93.70;;;;;;5078661;28;20024;-79
2021/01/07 10:08:46;;;;;;;45.75;24.38;;;3.30;93.70;;;;;;5061752;28;20111;-79
2021/01/07 10:11:14;;;;;;;34.22;21.85;;;3.40;93.80;;;;;;5061184;28;20039;-79
2021/01/07 10:13:40;;;;;;;42.90;23.20;;;3.40;93.70;;;;;;5075951;28;20032;-79
2021/01/07 10:16:10;;;;;;;37.25;22.55;;;3.40;93.60;;;;;;5077875;28;20032;-80
2021/01/07 10:18:35;;;;;;;37.78;21.60;;;3.40;93.60;;;;;;5075686;28;20043;-79
2021/01/07 10:21:04;;;;;;;32.92;20.83;;;3.50;93.60;;;;;;5045111;28;20024;-80
2021/01/07 10:23:30;;;;;;;49.85;25.08;;;3.50;93.90;;;;;;5096132;28;20036;-80
2021/01/07 10:25:59;;;;;;;32.95;19.95;;;3.50;93.50;;;;;;5078199;28;20380;-80
2021/01/07 10:28:26;;;;;;;;;;;3.50;93.60;;;;;;5096851;28;20458;-79
2021/01/07 10:30:52;;;;;;;35.30;20.23;;;3.50;93.60;;;;;;5078058;28;20317;-80
2021/01/07 10:33:18;;;;;;;29.58;18.15;;;3.50;93.60;;;;;;5061459;28;20063;-79
2021/01/07 10:35:44;;;;;;;31.08;18.00;;;3.60;93.60;;;;;;5078149;28;20020;-80
2021/01/07 10:38:11;;;;;;;31.17;18.65;;;3.60;93.60;;;;;;5078105;28;20024;-79
2021/01/07 10:40:43;;;;;;;31.30;18.33;;;3.60;93.40;;;;;;5078044;28;20047;-80
2021/01/07 10:43:09;;;;;;;31.10;17.48;;;3.60;93.50;;;;;;5077953;28;20028;-79
2021/01/07 10:45:35;;;;;;;31.00;17.50;;;3.60;93.50;;;;;;5060624;28;20032;-80
2021/01/07 10:48:07;;;;;;;26.95;15.73;;;3.70;93.60;;;;;;5061238;28;20550;-79
2021/01/07 10:50:36;;;;;;;26.10;15.27;;;3.60;93.50;;;;;;5077856;28;20460;-80
2021/01/07 10:53:28;;;;;;;23.73;15.57;;;3.70;93.50;;;;;;5061009;28;20067;-79
2021/01/07 10:56:01;;;;;;;22.08;14.07;;;3.60;93.60;;;;;;5095846;28;20099;-80
2021/01/07 10:58:49;;;;;;;27.63;15.57;;;3.70;93.60;;;;;;5077770;28;20024;-79
2021/01/07 11:01:40;;;;;;;22.35;13.63;;;3.70;93.60;;;;;;5077631;28;20080;-80
2021/01/07 11:04:13;;;;;;;20.42;12.65;;;3.70;93.60;;;;;;5095649;28;20070;-79
2021/01/07 11:06:48;;;;;;;18.13;12.45;;;3.70;93.60;;;;;;5077604;28;20499;-79
2021/01/07 11:09:15;;;;;;;17.55;12.00;;;3.70;93.70;;;;;;5077511;28;20036;-79
2021/01/07 11:11:55;;;;;;;19.25;12.52;;;3.70;93.50;;;;;;5095531;28;20024;-79
2021/01/07 11:14:40;;;;;;;16.85;11.63;;;3.70;93.50;;;;;;5077472;28;20115;-80
2021/01/07 11:17:10;;;;;;;16.00;11.20;;;3.70;93.40;;;;;;5076953;28;20072;-79
2021/01/07 11:19:36;;;;;;;17.80;11.07;;;3.60;93.30;;;;;;5077265;28;20052;-79
2021/01/07 11:22:21;;;;;;;17.20;11.05;;;3.60;93.30;;;;;;5094907;28;20024;-80
2021/01/07 11:24:48;;;;;;;18.88;11.48;;;3.60;93.40;;;;;;5095486;28;20489;-80
2021/01/07 11:27:15;;;;;;;20.83;11.90;;;3.60;93.40;;;;;;5077151;28;20032;-79
2021/01/07 11:29:41;;;;;;;14.05;10.02;;;3.60;93.50;;;;;;5060316;28;20032;-80
2021/01/07 11:32:07;;;;;;;19.55;10.90;;;3.60;93.60;;;;;;5077030;28;20031;-80
2021/01/07 11:34:34;;;;;;;18.80;11.00;;;3.60;93.60;;;;;;5077110;28;20020;-80
2021/01/07 11:37:30;;;;;;;16.38;10.43;;;3.60;93.60;;;;;;5076755;28;20077;-79
2021/01/07 11:39:58;;;;;;;15.88;10.25;;;3.60;93.60;;;;;;5077024;28;20016;-80
2021/01/07 11:42:36;;;;;;;13.50;9.40;;;3.60;93.50;;;;;;5094733;28;20035;-79
2021/01/07 11:45:11;;;;;;;14.38;10.05;;;3.60;93.60;;;;;;5095583;28;20024;-88
2021/01/07 11:47:47;;;;;;;16.48;10.23;;;3.60;93.70;;;;;;5095962;28;20021;-87
2021/01/07 11:50:15;;;;;;;14.15;9.50;;;3.70;93.70;;;;;;5095094;28;20032;-86
2021/01/07 11:52:44;;;;;;;14.15;8.70;;;3.70;93.70;;;;;;5076600;28;20028;-87
2021/01/07 11:55:12;;;;;;;13.27;8.90;;;3.60;93.50;;;;;;5077598;28;20028;-87
2021/01/07 11:57:40;;;;;;;12.52;8.45;;;3.60;93.60;;;;;;5090199;28;20038;-87
2021/01/07 12:00:11;;;;;;;16.13;9.87;;;3.60;93.60;;;;;;5114813;28;20034;-86
2021/01/07 12:02:40;;;;;;;14.00;9.13;;;3.60;93.70;;;;;;5095624;28;20023;-86
2021/01/07 12:05:06;;;;;;;;;;;3.70;93.70;;;;;;5077776;28;20074;-87
2021/01/07 12:07:56;;;;;;;13.60;9.45;;;3.70;93.70;;;;;;5095374;28;19907;-87
2021/01/07 12:10:23;;;;;;;13.18;9.25;;;3.70;93.80;;;;;;5077510;28;20408;-87
2021/01/07 12:13:23;;;;;;;13.52;9.50;;;3.80;93.70;;;;;;5095008;28;20026;-87
2021/01/07 12:15:53;;;;;;;13.82;9.88;;;3.80;93.70;;;;;;5077442;28;20028;-87
2021/01/07 12:18:26;;;;;;;15.15;11.95;;;3.80;93.60;;;;;;5110938;27;20393;-86
2021/01/07 12:20:52;;;;;;;15.25;11.10;;;4.10;93.50;;;;;;5094000;28;20024;-87
2021/01/07 12:23:19;;;;;;;15.48;10.75;;;4.10;93.00;;;;;;5110767;28;20049;-86
2021/01/07 12:25:47;;;;;;;15.32;10.90;;;4.00;93.00;;;;;;5110829;28;20016;-86
2021/01/07 12:28:18;;;;;;;13.70;10.30;;;4.00;93.00;;;;;;5110930;28;20035;-86
2021/01/07 12:30:46;;;;;;;20.55;12.48;;;4.00;93.20;;;;;;5109727;28;20391;-86
2021/01/07 12:33:22;;;;;;;19.10;13.55;;;3.90;93.30;;;;;;5090860;28;20435;-86
2021/01/07 12:36:32;;;;;;;19.13;13.60;;;3.90;93.40;;;;;;5110642;28;20035;-87
2021/01/07 12:39:24;;;;;;;20.65;14.20;;;3.90;93.30;;;;;;5111888;28;20024;-87
2021/01/07 12:41:54;;;;;;;19.08;13.38;;;3.90;93.30;;;;;;5110486;28;20058;-87
2021/01/07 12:44:22;;;;;;;19.05;13.52;;;3.90;93.40;;;;;;5093862;28;20024;-86
2021/01/07 12:46:51;;;;;;;19.50;14.40;;;3.90;93.50;;;;;;5110567;28;20024;-87
2021/01/07 12:49:18;;;;;;;19.20;14.88;;;3.90;93.50;;;;;;5110484;28;20078;-86